Time;durP1;ratioP1;P1;durP2;ratioP2;P2;SDS_P1;SDS_P2;PMS_P1;PMS_P2;Temp;Humidity;BMP_temperature;BMP_pressure;BME280_temperature;BME280_humidity;BME280_pressure;Samples;Min_cycle;Max_cycle;Signal;HPM_P1;HPM_P2
2021/04/13 00:00:48;;;;;;;1.77;1.77;;;;;;;-3.52;100.00;101434.44;5116159;28;20459;-73
2021/04/13 00:04:00;;;;;;;5.15;2.40;;;;;;;-3.54;100.00;101439.44;5115511;28;20051;-74
2021/04/13 00:07:04;;;;;;;3.30;3.20;;;;;;;-3.58;100.00;101432.28;5103059;28;20063;-75
2021/04/13 00:10:22;;;;;;;2.30;2.15;;;;;;;-3.59;100.00;101439.66;5102795;28;20396;-74
2021/04/13 00:13:28;;;;;;;1.60;1.60;;;;;;;-3.62;100.00;101436.84;5115083;28;20070;-74
2021/04/13 00:16:35;;;;;;;2.08;2.08;;;;;;;-3.66;100.00;101434.00;5095080;28;20051;-73
2021/04/13 00:19:49;;;;;;;4.28;2.83;;;;;;;-3.66;100.00;101442.16;5082921;28;20051;-74
2021/04/13 00:22:53;;;;;;;1.85;1.85;;;;;;;-3.71;100.00;101434.25;5082087;28;20048;-74
2021/04/13 00:25:59;;;;;;;2.95;2.85;;;;;;;-3.74;100.00;101434.91;5082585;28;20149;-74
2021/04/13 00:29:12;;;;;;;5.47;3.70;;;;;;;-3.77;100.00;101441.06;5094691;28;20047;-74
2021/04/13 00:32:21;;;;;;;2.42;2.42;;;;;;;-3.83;100.00;101448.63;5095016;28;20043;-74
2021/04/13 00:35:34;;;;;;;7.30;2.92;;;;;;;-3.85;100.00;101445.47;5082084;28;20499;-74
2021/04/13 00:38:44;;;;;;;2.58;2.38;;;;;;;-3.85;100.00;101444.66;5081838;28;20055;-74
2021/04/13 00:41:54;;;;;;;2.28;2.28;;;;;;;-3.86;100.00;101443.09;5082215;28;20064;-74
2021/04/13 00:45:13;;;;;;;2.33;2.13;;;;;;;-3.89;100.00;101443.75;5094928;28;20047;-75
2021/04/13 00:48:39;;;;;;;2.88;2.78;;;;;;;-3.92;100.00;101444.44;5094460;28;20059;-74
2021/04/13 00:51:54;;;;;;;1.60;1.60;;;;;;;-3.91;100.00;101448.75;5094484;28;20051;-74
2021/04/13 00:55:00;;;;;;;1.80;1.80;;;;;;;-3.97;100.00;101445.47;5094718;28;20462;-82
2021/04/13 00:58:12;;;;;;;3.33;3.13;;;;;;;-4.00;100.00;101451.56;5093687;28;20043;-81
2021/04/13 01:01:30;;;;;;;2.58;2.58;;;;;;;-4.04;100.00;101458.81;5081640;28;20050;-81
2021/04/13 01:04:37;;;;;;;11.90;2.92;;;;;;;-4.08;100.00;101452.47;5094217;28;20047;-81
2021/04/13 01:07:44;;;;;;;2.50;2.45;;;;;;;-4.08;100.00;101454.38;5081195;28;20036;-80
2021/04/13 01:10:53;;;;;;;1.90;1.90;;;;;;;-4.11;100.00;101453.13;5081948;28;20051;-81
2021/04/13 01:14:01;;;;;;;2.47;2.38;;;;;;;-4.14;100.00;101458.47;5093614;28;20051;-81
2021/04/13 01:17:08;;;;;;;1.75;1.75;;;;;;;-4.12;100.00;101450.75;5093551;28;20051;-81
2021/04/13 01:20:18;;;;;;;2.33;2.22;;;;;;;-4.13;100.00;101449.16;5093883;28;20047;-81
2021/04/13 01:23:31;;;;;;;3.53;3.10;;;;;;;-4.18;100.00;101452.13;5092906;28;20047;-74
2021/04/13 01:26:41;;;;;;;2.85;2.75;;;;;;;-4.23;100.00;101446.88;5080871;28;20047;-74
2021/04/13 01:29:46;;;;;;;8.52;2.58;;;;;;;-4.26;100.00;101451.06;5080820;28;20043;-74
2021/04/13 01:32:49;;;;;;;2.60;2.50;;;;;;;-4.33;100.00;101444.63;5092376;28;20047;-74
2021/04/13 01:35:55;;;;;;;7.97;2.60;;;;;;;-4.34;100.00;101448.44;5093257;28;20051;-74
2021/04/13 01:39:04;;;;;;;2.85;2.65;;;;;;;-4.37;100.00;101446.38;5080783;28;20055;-74
2021/04/13 01:42:09;;;;;;;2.38;2.38;;;;;;;-4.38;100.00;101447.53;5093433;28;20047;-74
2021/04/13 01:45:17;;;;;;;2.63;2.55;;;;;;;-4.36;100.00;101456.16;5081591;28;20047;-74
2021/04/13 01:48:21;;;;;;;2.20;2.10;;;;;;;-4.35;100.00;101441.44;5080530;28;20054;-74
2021/04/13 01:51:31;;;;;;;5.20;2.60;;;;;;;-4.37;100.00;101446.38;5093716;28;20043;-74
2021/04/13 01:54:36;;;;;;;1.27;1.27;;;;;;;-4.41;100.00;101453.63;5080656;28;20090;-74
2021/04/13 01:57:46;;;;;;;2.22;2.13;;;;;;;-4.44;100.00;101446.94;5092836;28;20538;-74
2021/04/13 02:01:08;;;;;;;8.50;3.35;;;;;;;-4.47;100.00;101450.34;5092854;28;20054;-74
2021/04/13 02:04:30;;;;;;;3.35;3.15;;;;;;;-4.47;100.00;101460.41;5080605;28;20472;-74
2021/04/13 02:11:12;;;;;;;2.65;2.45;;;;;;;-4.54;100.00;101463.69;5093338;28;20043;-74
2021/04/13 02:14:18;;;;;;;5.07;3.08;;;;;;;-4.55;100.00;101464.03;5082152;28;20055;-74
2021/04/13 02:17:37;;;;;;;2.58;2.45;;;;;;;-4.56;100.00;101467.84;5112789;28;20086;-74
2021/04/13 02:20:44;;;;;;;5.72;2.75;;;;;;;-4.59;100.00;101460.38;5112581;28;20522;-74
2021/04/13 02:23:53;;;;;;;1.95;1.90;;;;;;;-4.65;100.00;101455.16;5112290;28;20526;-73
2021/04/13 02:26:59;;;;;;;3.47;2.28;;;;;;;-4.68;100.00;101458.53;5113005;28;20507;-74
2021/04/13 02:30:13;;;;;;;2.38;2.28;;;;;;;-4.70;100.00;101460.00;5113223;28;20050;-74
2021/04/13 02:33:16;;;;;;;2.92;2.83;;;;;;;-4.73;100.00;101461.47;5100277;28;20058;-74
2021/04/13 02:36:32;;;;;;;2.92;2.83;;;;;;;-4.79;100.00;101451.13;5100401;28;20046;-74
2021/04/13 02:39:40;;;;;;;2.47;2.25;;;;;;;-4.80;100.00;101460.41;5112582;28;20047;-74
2021/04/13 02:42:46;;;;;;;1.63;1.63;;;;;;;-4.84;100.00;101452.13;5100138;28;20503;-74
2021/04/13 02:45:53;;;;;;;3.10;2.88;;;;;;;-4.85;100.00;101447.81;5113110;28;20046;-74
2021/04/13 02:49:16;;;;;;;3.03;2.83;;;;;;;-4.85;100.00;101453.25;5112567;28;20066;-74
2021/04/13 02:52:26;;;;;;;2.58;2.42;;;;;;;-4.86;100.00;101454.41;5099933;28;20062;-74
2021/04/13 02:55:36;;;;;;;2.08;2.03;;;;;;;-4.88;100.00;101451.22;5112631;28;20376;-74
2021/04/13 02:58:54;;;;;;;2.45;2.35;;;;;;;-4.88;100.00;101447.69;5099827;28;20051;-74
2021/04/13 03:02:30;;;;;;;1.85;1.70;;;;;;;-4.90;100.00;101445.31;5112393;28;20051;-72
2021/04/13 03:05:35;;;;;;;10.15;2.35;;;;;;;-4.93;100.00;101454.13;5113934;28;20046;-74
2021/04/13 03:08:42;;;;;;;2.50;2.40;;;;;;;-4.96;100.00;101449.34;5099562;28;20412;-74
2021/04/13 03:11:54;;;;;;;2.20;2.10;;;;;;;-4.96;100.00;101449.34;5113052;28;20044;-75
2021/04/13 03:14:58;;;;;;;7.88;2.58;;;;;;;-4.99;100.00;101444.59;5092450;28;20043;-74
2021/04/13 03:18:09;;;;;;;3.78;3.58;;;;;;;-4.98;100.00;101446.16;5092010;28;20047;-75
2021/04/13 03:21:32;;;;;;;3.53;3.22;;;;;;;-5.03;100.00;101440.97;5083675;28;20039;-74
2021/04/13 03:24:40;;;;;;;4.03;2.63;;;;;;;-5.03;100.00;101449.09;5095861;28;20051;-75
2021/04/13 03:27:45;;;;;;;2.55;2.55;;;;;;;-5.06;100.00;101451.66;5095777;28;20047;-74
2021/04/13 03:30:51;;;;;;;6.63;2.83;;;;;;;-5.14;100.00;101455.25;5096259;28;20043;-74
2021/04/13 03:33:54;;;;;;;4.32;2.03;;;;;;;-5.19;100.00;101448.09;5096305;28;20039;-74
2021/04/13 03:36:59;;;;;;;2.33;2.22;;;;;;;-5.21;100.00;101450.34;5096064;28;20510;-74
2021/04/13 03:40:08;;;;;;;3.05;2.85;;;;;;;-5.25;100.00;101452.16;5095753;28;20504;-74
2021/04/13 03:43:14;;;;;;;1.90;1.88;;;;;;;-5.27;100.00;101443.53;5095482;28;20051;-74
2021/04/13 03:46:19;;;;;;;2.90;2.80;;;;;;;-5.27;100.00;101451.69;5096003;28;20047;-74
2021/04/13 03:49:29;;;;;;;2.30;2.20;;;;;;;-5.24;100.00;101451.00;5095285;28;20043;-74
2021/04/13 03:52:34;;;;;;;3.60;2.55;;;;;;;-5.26;100.00;101455.19;5082394;28;20074;-74
2021/04/13 03:55:38;;;;;;;3.42;3.22;;;;;;;-5.27;100.00;101454.41;5095578;28;20062;-81
2021/04/13 03:58:51;;;;;;;11.90;4.00;;;;;;;-5.27;100.00;101459.81;5095515;28;20515;-81
2021/04/13 04:01:55;;;;;;;1.70;1.70;;;;;;;-5.31;100.00;101456.19;5095653;28;20056;-82
2021/04/13 04:05:03;;;;;;;2.13;2.13;;;;;;;-5.35;100.00;101457.16;5083495;28;20051;-81
2021/04/13 04:08:16;;;;;;;2.45;2.35;;;;;;;-5.38;100.00;101450.47;5082739;28;20054;-81
2021/04/13 04:11:32;;;;;;;2.53;2.42;;;;;;;-5.39;100.00;101452.38;5095645;28;20059;-80
2021/04/13 04:14:35;;;;;;;1.73;1.73;;;;;;;-5.38;100.00;101447.75;5087620;28;20043;-81
2021/04/13 04:17:49;;;;;;;2.10;2.10;;;;;;;-5.38;100.00;101447.75;5115419;28;20050;-80
2021/04/13 04:20:53;;;;;;;2.08;2.08;;;;;;;-5.37;100.00;101454.75;5115715;28;20097;-81
2021/04/13 04:24:06;;;;;;;2.33;2.33;;;;;;;-5.37;100.00;101452.06;5115902;28;20054;-81
2021/04/13 04:27:15;;;;;;;2.97;2.75;;;;;;;-5.37;100.00;101461.00;5102500;28;20043;-82
2021/04/13 04:30:29;;;;;;;2.30;2.22;;;;;;;-5.39;100.00;101462.44;5114645;28;20344;-80
2021/04/13 04:33:38;;;;;;;2.60;2.50;;;;;;;-5.44;100.00;101460.75;5102568;28;20050;-82
2021/04/13 04:36:53;;;;;;;2.85;2.70;;;;;;;-5.47;100.00;101466.00;5102484;28;20503;-81
2021/04/13 04:40:18;;;;;;;2.05;2.05;;;;;;;-5.52;100.00;101468.91;5102243;28;20545;-82
2021/04/13 04:43:45;;;;;;;1.73;1.73;;;;;;;-5.59;100.00;101464.00;5102608;28;20054;-82
2021/04/13 04:46:49;;;;;;;1.85;1.85;;;;;;;-5.61;100.00;101462.75;5102526;28;20050;-82
2021/04/13 04:49:53;;;;;;;2.65;2.58;;;;;;;-5.62;100.00;101461.16;5115308;28;20054;-82
2021/04/13 04:52:56;;;;;;;3.00;2.70;;;;;;;-5.60;100.00;101461.63;5114709;28;20054;-82
2021/04/13 04:56:01;;;;;;;2.33;2.28;;;;;;;-5.58;100.00;101460.19;5115425;28;20395;-81
2021/04/13 04:59:05;;;;;;;2.00;2.00;;;;;;;-5.57;100.00;101460.97;5114760;28;20046;-82
2021/04/13 05:02:08;;;;;;;2.83;2.72;;;;;;;-5.56;100.00;101466.06;5114694;28;20039;-81
2021/04/13 05:05:12;;;;;;;6.32;3.33;;;;;;;-5.57;100.00;101461.78;5102152;28;20530;-80
2021/04/13 05:08:16;;;;;;;2.22;2.22;;;;;;;-5.56;100.00;101466.06;5114606;28;20499;-81
2021/04/13 05:11:21;;;;;;;8.13;2.88;;;;;;;-5.55;100.00;101467.66;5114946;28;20047;-82
2021/04/13 05:14:25;;;;;;;26.30;4.75;;;;;;;-5.56;100.00;101462.56;5111310;28;20055;-82
2021/04/13 05:17:28;;;;;;;4.78;1.65;;;;;;;-5.58;100.00;101464.81;5093901;28;20512;-81
2021/04/13 05:20:32;;;;;;;3.00;2.25;;;;;;;-5.55;100.00;101469.59;5094132;28;20043;-82
2021/04/13 05:23:35;;;;;;;2.53;2.45;;;;;;;-5.54;100.00;101471.16;5094078;28;20539;-81
2021/04/13 05:26:39;;;;;;;2.25;2.25;;;;;;;-5.53;100.00;101480.91;5093951;28;20055;-80
2021/04/13 05:29:42;;;;;;;3.60;3.10;;;;;;;-5.50;100.00;101491.88;5081225;28;20055;-81
2021/04/13 05:32:47;;;;;;;3.30;3.03;;;;;;;-5.48;100.00;101486.16;5093700;28;20051;-81
2021/04/13 05:35:51;;;;;;;4.15;3.03;;;;;;;-5.43;100.00;101494.09;5094065;28;20062;-81
2021/04/13 05:38:54;;;;;;;4.57;3.70;;;;;;;-5.38;100.00;101491.19;5093394;28;20055;-82
2021/04/13 05:41:59;;;;;;;3.58;3.38;;;;;;;-5.34;100.00;101497.56;5093186;28;20067;-81
2021/04/13 05:45:05;;;;;;;3.60;2.55;;;;;;;-5.36;100.00;101494.38;5093779;28;20047;-81
2021/04/13 05:48:10;;;;;;;2.03;2.03;;;;;;;-5.34;100.00;101496.75;5093145;28;20054;-82
2021/04/13 05:51:13;;;;;;;19.58;6.03;;;;;;;-5.30;100.00;101498.47;5093992;28;20051;-82
2021/04/13 05:54:17;;;;;;;3.75;3.45;;;;;;;-5.25;100.00;101503.72;5093467;28;20083;-81
2021/04/13 05:57:29;;;;;;;3.85;3.17;;;;;;;-5.20;100.00;101503.53;5093180;28;20515;-79
2021/04/13 06:00:33;;;;;;;3.35;3.15;;;;;;;-5.16;100.00;101504.47;5093250;28;20043;-79
2021/04/13 06:03:38;;;;;;;11.93;2.60;;;;;;;-5.07;100.00;101507.13;5093272;28;20055;-79
2021/04/13 06:06:42;;;;;;;2.65;2.47;;;;;;;-4.98;100.00;101505.16;5093431;28;20040;-79
2021/04/13 06:09:45;;;;;;;1.33;1.33;;;;;;;-4.92;100.00;101510.06;5093608;28;20051;-78
2021/04/13 06:12:57;;;;;;;2.15;2.15;;;;;;;-4.86;100.00;101525.03;5081045;28;20400;-78
2021/04/13 06:16:00;;;;;;;3.05;2.95;;;;;;;-4.80;100.00;101528.31;5080928;28;20043;-79
2021/04/13 06:19:05;;;;;;;2.25;2.25;;;;;;;-4.71;100.00;101531.78;5093389;28;20392;-80
2021/04/13 06:22:08;;;;;;;1.90;1.80;;;;;;;-4.58;100.00;101529.91;5093512;28;20098;-80
2021/04/13 06:25:13;;;;;;;2.95;2.72;;;;;;;-4.49;100.00;101534.16;5080799;28;20043;-78
2021/04/13 06:28:16;;;;;;;5.22;2.88;;;;;;;-4.41;100.00;101536.00;5092756;28;20050;-80
2021/04/13 06:31:19;;;;;;;3.45;3.33;;;;;;;-4.33;100.00;101532.38;5093346;28;20051;-80
2021/04/13 06:34:22;;;;;;;3.20;3.00;;;;;;;-4.25;100.00;101545.13;5093346;28;20047;-79
2021/04/13 06:37:26;;;;;;;3.72;3.53;;;;;;;-4.10;100.00;101540.97;5092327;28;20500;-78
2021/04/13 06:41:23;;;;;;;2.53;2.42;;;;;;;-3.99;100.00;101536.72;5092787;28;20051;-80
2021/04/13 06:44:44;;;;;;;3.28;3.10;;;;;;;-3.84;100.00;101538.78;5003367;28;20072;-79
2021/04/13 06:48:21;;;;;;;1.90;1.90;;;;;;;-3.67;100.00;101535.03;5080617;28;20499;-80
2021/04/13 06:52:02;;;;;;;3.13;2.92;;;;;;;-3.50;100.00;101529.38;5092845;28;20336;-80
2021/04/13 06:55:33;;;;;;;2.28;2.28;;;;;;;-3.32;100.00;101538.94;5092349;28;20043;-79
2021/04/13 06:58:52;;;;;;;4.60;2.15;;;;;;;-3.23;100.00;101526.75;5080597;28;20055;-80
2021/04/13 07:01:59;;;;;;;2.95;2.53;;;;;;;-3.06;100.00;101525.75;5092870;28;20059;-80
2021/04/13 07:05:09;;;;;;;3.78;3.47;;;;;;;-2.86;100.00;101519.34;5092718;28;20067;-77
2021/04/13 07:08:20;;;;;;;2.67;2.58;;;;;;;-2.78;100.00;101531.25;5080734;28;20050;-78
2021/04/13 07:11:35;;;;;;;2.92;2.72;;;;;;;-2.67;100.00;101532.34;5080615;28;20523;-78
2021/04/13 07:15:01;;;;;;;2.38;2.28;;;;;;;-2.58;100.00;101533.00;5080437;28;20043;-78
2021/04/13 07:18:16;;;;;;;2.40;2.35;;;;;;;-2.46;100.00;101527.50;5092524;28;20047;-81
2021/04/13 07:21:30;;;;;;;1.92;1.73;;;;;;;-2.34;100.00;101535.66;5079982;28;20051;-80
2021/04/13 07:24:52;;;;;;;3.42;2.97;;;;;;;-2.18;100.00;101544.66;5092627;28;20063;-80
2021/04/13 07:28:03;;;;;;;2.70;2.63;;;;;;;-2.01;100.00;101538.88;5092876;28;20051;-80
2021/04/13 07:31:15;;;;;;;2.05;1.98;;;;;;;-1.80;100.00;101530.47;5068682;28;20063;-80
2021/04/13 07:34:19;;;;;;;7.03;3.17;;;;;;;-1.54;100.00;101525.28;5080112;28;20059;-80
2021/04/13 07:37:36;;;;;;;1.98;1.98;;;;;;;-1.42;100.00;101535.31;5092242;28;20047;-79
2021/04/13 07:40:45;;;;;;;1.92;1.92;;;;;;;-1.35;100.00;101532.75;5092266;28;20055;-80
2021/04/13 07:44:16;;;;;;;2.67;2.10;;;;;;;-1.21;100.00;101527.63;5092241;28;20050;-81
2021/04/13 07:47:36;;;;;;;2.40;2.30;;;;;;;-0.99;100.00;101529.69;5092593;28;20055;-80
2021/04/13 07:51:02;;;;;;;5.00;2.85;;;;;;;-0.76;100.00;101522.41;5092418;28;20043;-80
2021/04/13 07:54:15;;;;;;;2.15;2.13;;;;;;;-0.62;100.00;101522.69;5057192;28;20051;-81
2021/04/13 07:57:32;;;;;;;4.20;3.70;;;;;;;-0.50;100.00;101529.97;5093942;28;20055;-80
2021/04/13 08:00:42;;;;;;;5.80;3.38;;;;;;;-0.33;100.00;101524.88;5099049;28;20044;-81
2021/04/13 08:03:45;;;;;;;8.27;3.13;;;;;;;-0.15;100.00;101523.25;5098121;28;20047;-80
2021/04/13 08:07:01;;;;;;;3.92;3.45;;;;;;;-0.02;100.00;101523.88;5095229;28;20063;-80
2021/04/13 08:10:17;;;;;;;3.83;3.13;;;;;;;0.18;100.00;101521.88;5083984;28;20047;-80
2021/04/13 08:13:31;;;;;;;2.58;2.47;;;;;;;0.37;100.00;101521.84;5096175;28;20047;-80
2021/04/13 08:16:37;;;;;;;4.20;3.83;;;;;;;0.53;100.00;101517.00;5083598;28;20110;-81
2021/04/13 08:19:42;;;;;;;2.28;2.10;;;;;;;0.68;100.00;101524.31;5096221;28;20059;-82
2021/04/13 08:22:57;;;;;;;1.98;1.88;;;;;;;0.89;100.00;101524.63;5096047;28;20047;-83
2021/04/13 08:26:32;;;;;;;2.40;2.25;;;;;;;1.15;100.00;101523.84;5083195;28;20050;-79
2021/04/13 08:29:47;;;;;;;6.35;3.03;;;;;;;1.30;100.00;101522.88;5095960;28;20047;-82
2021/04/13 08:33:24;;;;;;;2.47;1.90;;;;;;;1.53;100.00;101526.28;5096037;28;20090;-82
2021/04/13 08:36:33;;;;;;;3.25;2.65;;;;;;;1.79;100.00;101517.19;5083184;28;20051;-82
2021/04/13 08:39:42;;;;;;;2.50;2.40;;;;;;;1.98;100.00;101509.53;5095660;28;20051;-82
2021/04/13 08:43:04;;;;;;;2.38;2.25;;;;;;;2.26;100.00;101517.28;5096922;28;20401;-82
2021/04/13 08:46:27;;;;;;;3.85;1.90;;;;;;;2.67;100.00;101518.81;5096744;28;20043;-82
2021/04/13 08:49:44;;;;;;;1.92;1.92;;;;;;;2.88;100.00;101513.44;5096803;28;20106;-82
2021/04/13 08:52:53;;;;;;;1.60;1.60;;;;;;;3.07;100.00;101521.44;5095591;28;20507;-82
2021/04/13 08:56:04;;;;;;;1.80;1.70;;;;;;;3.36;100.00;101514.13;5082817;28;20055;-83
2021/04/13 08:59:09;;;;;;;1.77;1.73;;;;;;;3.56;100.00;101503.59;5095222;28;20404;-83
2021/04/13 09:02:21;;;;;;;1.60;1.60;;;;;;;3.86;100.00;101506.84;5082384;28;20043;-83
2021/04/13 09:05:28;;;;;;;4.90;2.03;;;;;;;3.99;100.00;101513.56;5082034;28;20051;-82
2021/04/13 09:09:09;;;;;;;6.97;2.33;;;;;;;4.18;100.00;101507.69;5093805;28;20511;-83
2021/04/13 09:12:16;;;;;;;2.22;1.42;;;;;;;4.40;100.00;101509.28;5081988;28;20051;-82
2021/04/13 09:15:19;;;;;;;1.67;1.58;;;;;;;4.58;100.00;101501.03;5094633;28;20059;-83
2021/04/13 09:18:27;;;;;;;1.05;1.05;;;;;;;4.69;100.00;101501.00;5082043;28;20042;-82
2021/04/13 09:21:51;;;;;;;1.60;1.48;;;;;;;4.81;100.00;101506.16;5081836;28;20046;-82
2021/04/13 09:25:13;;;;;;;2.58;1.10;;;;;;;5.11;100.00;101503.72;5082328;28;20404;-83
2021/04/13 09:28:23;;;;;;;0.93;0.93;;;;;;;5.34;100.00;101510.38;5082162;28;20389;-83
2021/04/13 09:31:44;;;;;;;1.15;1.02;;;;;;;5.57;100.00;101512.63;5081974;28;20047;-82
2021/04/13 09:35:16;;;;;;;1.25;1.13;;;;;;;5.76;100.00;101511.38;5081781;28;20058;-82
2021/04/13 09:39:04;;;;;;;1.10;1.10;;;;;;;5.95;100.00;101516.44;5081685;28;20511;-82
2021/04/13 09:42:20;;;;;;;1.55;0.80;;;;;;;6.23;100.00;101509.94;5094733;28;20063;-83
2021/04/13 09:45:38;;;;;;;0.95;0.95;;;;;;;6.49;100.00;101509.34;5081470;28;20515;-82
2021/04/13 09:49:08;;;;;;;4.10;1.83;;;;;;;6.74;100.00;101515.47;5094371;28;20142;-83
2021/04/13 09:52:33;;;;;;;2.13;1.15;;;;;;;6.87;100.00;101520.09;5081978;28;20495;-85
2021/04/13 09:55:45;;;;;;;0.45;0.45;;;;;;;7.03;100.00;101516.78;5081662;28;20051;-83
2021/04/13 09:59:17;;;;;;;2.17;1.15;;;;;;;7.15;100.00;101519.03;5080965;28;20511;-83
2021/04/13 10:02:53;;;;;;;1.00;0.35;;;;;;;7.30;100.00;101520.44;5093856;28;20047;-78
2021/04/13 10:06:00;;;;;;;11.25;1.52;;;;;;;7.41;100.00;101515.56;5081329;28;20047;-86
2021/04/13 10:09:16;;;;;;;1.42;0.82;;;;;;;7.52;100.00;101507.91;5081311;28;20047;-80
2021/04/13 10:12:35;;;;;;;0.80;0.60;;;;;;;7.69;100.00;101517.22;5081277;28;20051;-79
2021/04/13 10:16:09;;;;;;;0.77;0.77;;;;;;;7.77;100.00;101520.69;5081259;28;20395;-80
2021/04/13 10:19:44;;;;;;;0.90;0.90;;;;;;;7.77;100.00;101509.59;5081126;28;20408;-81
2021/04/13 10:23:06;;;;;;;1.85;0.75;;;;;;;7.81;100.00;101516.66;5093267;28;20051;-79
2021/04/13 10:26:34;;;;;;;0.60;0.60;;;;;;;7.97;100.00;101502.19;5093521;28;20427;-80
2021/04/13 10:29:59;;;;;;;1.73;0.88;;;;;;;8.08;100.00;101502.81;5092903;28;20046;-83
2021/04/13 10:33:47;;;;;;;1.85;0.55;;;;;;;8.20;100.00;101505.81;5082121;28;20055;-81
2021/04/13 10:37:10;;;;;;;1.08;0.22;;;;;;;8.51;100.00;101498.19;5005860;28;20053;-81
2021/04/13 10:40:19;;;;;;;1.85;0.60;;;;;;;8.73;100.00;101496.66;5080603;28;20062;-77
2021/04/13 10:44:14;;;;;;;1.70;0.77;;;;;;;8.79;100.00;101497.72;5094990;28;20059;-77
2021/04/13 10:47:40;;;;;;;1.15;0.55;;;;;;;8.84;100.00;101494.47;5063610;28;20396;-76
2021/04/13 10:51:02;;;;;;;0.47;0.40;;;;;;;8.98;100.00;101494.25;5079974;28;20058;-76
2021/04/13 10:54:28;;;;;;;0.20;0.20;;;;;;;9.06;100.00;101489.31;5079891;28;20047;-77
2021/04/13 10:57:54;;;;;;;2.38;0.40;;;;;;;9.01;100.00;101493.38;5079879;28;20512;-78
2021/04/13 11:01:13;;;;;;;0.10;0.10;;;;;;;8.92;100.00;101489.59;5092688;28;20043;-76
2021/04/13 11:04:35;;;;;;;7.78;0.47;;;;;;;8.90;100.00;101490.00;5080077;28;20500;-76
2021/04/13 11:08:10;;;;;;;0.75;0.57;;;;;;;8.87;100.00;101490.88;5079818;28;20039;-76
2021/04/13 11:11:38;;;;;;;1.13;0.60;;;;;;;8.93;100.00;101486.38;5092371;28;20051;-78
2021/04/13 11:14:51;;;;;;;0.65;0.60;;;;;;;9.00;100.00;101489.03;5085798;28;20403;-79
2021/04/13 11:17:56;;;;;;;0.28;0.28;;;;;;;9.07;100.00;101497.22;5099649;28;20054;-78
2021/04/13 11:21:19;;;;;;;0.40;0.40;;;;;;;9.11;100.00;101492.41;5112707;28;20047;-79
2021/04/13 11:24:39;;;;;;;0.47;0.35;;;;;;;9.24;100.00;101488.97;5099763;28;20055;-79
2021/04/13 11:27:54;;;;;;;0.28;0.28;;;;;;;9.51;100.00;101481.28;5099707;28;20042;-80
2021/04/13 11:31:14;;;;;;;0.30;0.30;;;;;;;9.71;100.00;101480.06;5100016;28;20058;-79
2021/04/13 11:34:32;;;;;;;3.67;0.60;;;;;;;9.96;100.00;101484.31;5099872;28;20058;-77
2021/04/13 11:38:01;;;;;;;0.40;0.40;;;;;;;10.14;100.00;101485.47;5099783;28;20051;-77
2021/04/13 11:41:17;;;;;;;4.80;1.80;;;;;;;10.15;100.00;101481.50;5074645;28;20056;-79
2021/04/13 11:44:56;;;;;;;3.22;0.35;;;;;;;10.40;98.66;101481.69;5075126;28;20059;-79
2021/04/13 11:48:26;;;;;;;0.40;0.40;;;;;;;10.63;100.00;101484.28;5075514;28;20114;-79
2021/04/13 11:51:49;;;;;;;1.17;1.08;;;;;;;10.70;98.42;101482.56;5074667;28;20044;-80
2021/04/13 11:54:54;;;;;;;0.15;0.15;;;;;;;10.77;97.39;101468.41;5074718;28;20052;-80
2021/04/13 11:58:23;;;;;;;6.32;0.47;;;;;;;10.86;96.05;101474.16;5074335;28;20500;-80
2021/04/13 12:01:27;;;;;;;2.05;0.47;;;;;;;11.00;96.45;101463.41;5074106;28;20084;-78
2021/04/13 12:04:47;;;;;;;1.30;0.65;;;;;;;11.01;91.53;101469.75;5074427;28;20051;-78
2021/04/13 12:07:50;;;;;;;0.70;0.45;;;;;;;10.99;91.64;101475.78;5075046;28;20480;-76
2021/04/13 12:10:55;;;;;;;0.43;0.20;;;;;;;11.01;91.86;101470.56;5075345;28;20047;-78
2021/04/13 12:14:37;;;;;;;0.30;0.30;;;;;;;10.94;90.90;101469.94;5074290;28;20059;-78
2021/04/13 12:17:51;;;;;;;;;;;;;;;10.94;91.59;101476.31;5055523;28;20385;-77
2021/04/13 12:20:54;;;;;;;0.30;0.30;;;;;;;10.97;90.83;101474.66;5055405;28;20288;-78
2021/04/13 12:23:59;;;;;;;0.40;0.30;;;;;;;11.14;89.69;101463.03;5055347;28;20052;-78
2021/04/13 12:27:30;;;;;;;0.60;0.28;;;;;;;11.52;92.47;101454.75;5055146;28;20111;-78
2021/04/13 12:30:43;;;;;;;;;;;;;;;11.78;93.70;101459.19;5055533;28;20091;-80
2021/04/13 12:33:49;;;;;;;1.48;0.50;;;;;;;11.59;88.76;101451.78;5054782;28;20377;-79
2021/04/13 12:36:57;;;;;;;0.50;0.50;;;;;;;11.58;85.62;101464.16;5053765;28;20044;-78
2021/04/13 12:40:20;;;;;;;0.65;0.43;;;;;;;11.53;82.88;101461.91;5070584;28;20814;-77
2021/04/13 12:43:29;;;;;;;0.20;0.20;;;;;;;11.62;83.82;101459.25;5075010;28;20044;-78
2021/04/13 12:46:33;;;;;;;6.38;0.55;;;;;;;11.69;82.65;101461.88;5075132;28;20067;-79
2021/04/13 12:49:43;;;;;;;0.68;0.40;;;;;;;11.81;82.73;101461.09;5074107;28;20407;-79
2021/04/13 12:52:47;;;;;;;0.20;0.20;;;;;;;11.72;81.98;101451.81;5073129;28;20397;-79
2021/04/13 12:56:05;;;;;;;0.60;0.47;;;;;;;11.57;81.05;101450.66;5073988;28;20640;-77
2021/04/13 12:59:12;;;;;;;1.48;0.20;;;;;;;11.53;81.96;101461.91;5074159;28;20052;-78
2021/04/13 13:02:36;;;;;;;0.38;0.30;;;;;;;11.80;78.60;101458.78;5074301;28;20048;-78
2021/04/13 13:05:40;;;;;;;3.22;0.80;;;;;;;11.87;78.69;101453.72;5074072;28;20699;-83
2021/04/13 13:08:56;;;;;;;0.95;0.52;;;;;;;11.94;80.37;101447.94;5073532;28;20047;-83
2021/04/13 13:12:05;;;;;;;0.95;0.43;;;;;;;11.80;81.08;101453.94;5074546;28;20044;-80
2021/04/13 13:15:12;;;;;;;1.92;0.40;;;;;;;11.73;84.92;101442.22;5073305;28;20047;-79
2021/04/13 13:18:18;;;;;;;0.68;0.20;;;;;;;11.91;81.79;101448.06;5073427;28;20059;-80
2021/04/13 13:21:28;;;;;;;1.85;0.55;;;;;;;11.90;81.09;101452.06;5073336;28;20044;-80
2021/04/13 13:24:34;;;;;;;1.65;0.68;;;;;;;12.03;80.70;101458.44;5073239;28;20043;-80
2021/04/13 13:27:38;;;;;;;1.15;0.30;;;;;;;11.96;79.68;101462.22;5073199;28;20484;-80
2021/04/13 13:30:41;;;;;;;1.73;0.30;;;;;;;12.01;80.31;101458.91;5074252;28;20043;-81
2021/04/13 13:33:46;;;;;;;0.63;0.63;;;;;;;12.08;81.34;101461.44;5073957;28;20035;-81
2021/04/13 13:36:50;;;;;;;0.28;0.25;;;;;;;11.83;83.30;101453.06;5073082;28;20090;-80
2021/04/13 13:39:57;;;;;;;2.03;0.63;;;;;;;11.75;84.28;101453.72;5072739;28;20059;-81
2021/04/13 13:43:06;;;;;;;1.40;0.47;;;;;;;11.83;81.67;101453.06;5072790;28;20051;-80
2021/04/13 13:46:27;;;;;;;1.25;0.50;;;;;;;11.89;78.26;101451.28;5072661;28;20491;-81
2021/04/13 13:49:46;;;;;;;4.78;0.98;;;;;;;11.89;78.33;101444.94;5073055;28;20051;-79
2021/04/13 13:52:52;;;;;;;0.30;0.30;;;;;;;11.96;78.68;101450.28;5074000;28;20512;-82
2021/04/13 13:56:05;;;;;;;0.75;0.20;;;;;;;11.93;77.61;101440.03;5072759;28;20048;-80
2021/04/13 13:59:40;;;;;;;0.50;0.30;;;;;;;11.80;78.10;101444.81;5072595;28;20521;-79
2021/04/13 14:02:44;;;;;;;1.20;0.47;;;;;;;11.83;81.15;101444.69;5072350;28;20051;-80
2021/04/13 14:05:58;;;;;;;2.58;0.95;;;;;;;11.97;79.86;101443.47;5073411;28;20043;-82
2021/04/13 14:09:17;;;;;;;5.10;1.65;;;;;;;11.99;80.41;101435.44;5084177;28;20048;-80
2021/04/13 14:12:32;;;;;;;2.55;0.60;;;;;;;12.09;80.02;101439.88;5071905;28;20051;-79
2021/04/13 14:15:48;;;;;;;0.57;0.57;;;;;;;12.10;79.16;101436.66;5080963;28;20070;-80
2021/04/13 14:18:55;;;;;;;0.75;0.45;;;;;;;12.03;78.96;101433.31;5092248;28;20051;-80
2021/04/13 14:22:07;;;;;;;2.20;0.52;;;;;;;11.90;78.79;101429.72;5092291;28;20051;-80
2021/04/13 14:25:32;;;;;;;0.25;0.25;;;;;;;11.79;78.82;101432.84;5093715;28;20507;-81
2021/04/13 14:28:36;;;;;;;0.40;0.20;;;;;;;11.75;79.95;101429.41;5092925;28;20385;-82
2021/04/13 14:31:41;;;;;;;2.38;0.47;;;;;;;11.70;76.77;101426.34;5093028;28;20043;-81
2021/04/13 14:34:44;;;;;;;2.15;1.13;;;;;;;11.74;77.45;101427.81;5092504;28;20050;-81
2021/04/13 14:37:48;;;;;;;0.40;0.40;;;;;;;11.74;75.68;101416.66;5092173;28;20500;-81
2021/04/13 14:40:52;;;;;;;1.30;0.80;;;;;;;11.60;73.29;101421.88;5083246;28;20520;-79
2021/04/13 14:43:55;;;;;;;0.30;0.30;;;;;;;11.43;71.53;101418.38;5071662;28;20051;-81
2021/04/13 14:47:05;;;;;;;0.43;0.20;;;;;;;11.39;81.73;101414.94;5071432;28;20083;-79
2021/04/13 14:50:13;;;;;;;5.93;0.22;;;;;;;11.33;80.44;101408.31;5071926;28;20063;-76
2021/04/13 14:53:20;;;;;;;0.40;0.20;;;;;;;11.27;79.51;101412.88;5071893;28;20055;-80
2021/04/13 14:56:24;;;;;;;1.45;0.68;;;;;;;11.25;78.25;101406.97;5071741;28;20043;-79